Flight Track Log - Related Links

Times and Time Zones

All times are in EDT time to prevent confusion due to time zone crossing. See the N421KS flight status page for this flight to view local times or setup timezone preferences in your user account.

Time Position Orientation Groundspeed Altitude Reporting Facility
EDT Latitude Longitude Course Direction KTS MPH feet Rate Location/Type
Mon 09:34:05 AM 44.4500 -68.4333 82° East 140 161 3,100  Level Moncton Center
Mon 09:35:05 AM 44.4500 -68.3500 90° East 160 184 3,700 650 Climbing Moncton Center
Mon 09:36:05 AM 44.4500 -68.3167 90° East 170 196 4,400 650 Climbing Moncton Center
Mon 09:37:05 AM 44.4500 -68.2333 90° East 160 184 5,000 727 Climbing Moncton Center
Mon 09:38:00 AM 44.4975 -67.9227 82° East  Level Estimated
Mon 09:38:17 AM 44.4733 -68.1511 68° East 164 189 6,000  Level Boston Center
Mon 09:39:00 AM 44.5047 -67.8494 82° East  Level FlightAware
Mon 09:39:15 AM 44.4792 -68.0897 82° East 164 189 6,600  Level Boston Center
Mon 09:40:16 AM 44.4850 -68.0250 83° East 159 183 7,300 645 Climbing Boston Center
Mon 09:41:16 AM 44.4908 -67.9606 83° East 159 183 7,900 600 Climbing Boston Center
Mon 09:42:16 AM 44.4947 -67.8992 85° East 159 183 8,500 545 Climbing Boston Center
Mon 09:43:17 AM 44.5003 -67.8289 84° East 164 189 9,000 226 Climbing Boston Center
Mon 09:44:29 AM 44.4833 -67.7333 104° East 190 219 9,000  Level Moncton Center
Mon 09:45:29 AM 44.5000 -67.6500 74° East 200 230 9,000  Level Moncton Center
Mon 09:46:29 AM 44.5167 -67.5667 74° East 200 230 9,000  Level Moncton Center
Mon 09:47:29 AM 44.5167 -67.5000 90° East 200 230 9,000  Level Moncton Center
Mon 09:48:29 AM 44.5333 -67.4167 74° East 200 230 9,000  Level Moncton Center
Mon 09:49:15 AM 44.5433 -67.3619 76° East 200 230 9,000  Level Boston Center
Mon 09:50:17 AM 44.5525 -67.2856 80° East 200 230 9,000  Level Boston Center
Mon 09:51:17 AM 44.5592 -67.2061 83° East 200 230 9,000  Level Boston Center
Mon 09:52:15 AM 44.5661 -67.1297 83° East 200 230 9,000  Level Boston Center
Mon 09:53:16 AM 44.5750 -67.0531 81° East 200 230 9,000  Level Boston Center
Mon 09:54:17 AM 44.5839 -66.9764 81° East 200 230 9,000  Level Boston Center
Mon 09:55:29 AM 44.5833 -66.8833 90° East 200 230 9,000  Level Moncton Center
Mon 09:56:29 AM 44.6000 -66.8000 74° East 200 230 9,000  Level Moncton Center
Mon 09:57:29 AM 44.6000 -66.7167 90° East 200 230 9,000  Level Moncton Center
Mon 09:58:29 AM 44.6167 -66.6500 71° East 200 230 9,000  Level Moncton Center
Mon 09:59:29 AM 44.6167 -66.5833 90° East 200 230 9,000  Level Moncton Center
Mon 10:00:29 AM 44.6333 -66.4833 77° East 200 230 9,000  Level Moncton Center
Mon 10:01:29 AM 44.6333 -66.4167 90° East 200 230 9,000  Level Moncton Center
Mon 10:02:29 AM 44.6500 -66.3500 71° East 200 230 9,000  Level Moncton Center
Mon 10:03:29 AM 44.6500 -66.2500 90° East 200 230 9,000  Level Moncton Center
Mon 10:04:29 AM 44.6667 -66.1833 71° East 200 230 9,000  Level Moncton Center
Mon 10:05:29 AM 44.6833 -66.1167 71° East 200 230 9,000  Level Moncton Center
Mon 10:06:29 AM 44.6833 -66.0167 90° East 200 230 9,000  Level Moncton Center
Mon 10:07:29 AM 44.7000 -65.9500 71° East 200 230 9,000  Level Moncton Center
Mon 10:08:29 AM 44.7000 -65.8833 90° East 200 230 9,000  Level Moncton Center
Mon 10:09:29 AM 44.7167 -65.7833 77° East 200 230 9,000  Level Moncton Center
Mon 10:10:29 AM 44.7167 -65.7167 90° East 210 242 9,000  Level Moncton Center
Mon 10:11:29 AM 44.7167 -65.6167 90° East 200 230 9,000  Level Moncton Center
Mon 10:12:29 AM 44.7333 -65.5500 71° East 210 242 9,000  Level Moncton Center
Mon 10:13:29 AM 44.7333 -65.4500 90° East 200 230 9,000  Level Moncton Center
Mon 10:14:29 AM 44.7333 -65.3833 90° East 200 230 9,000  Level Moncton Center
Mon 10:15:29 AM 44.7333 -65.3167 90° East 200 230 9,000  Level Moncton Center
Mon 10:16:29 AM 44.7333 -65.2167 90° East 200 230 9,000  Level Moncton Center
Mon 10:17:29 AM 44.7500 -65.1500 71° East 200 230 9,000  Level Moncton Center
Mon 10:18:29 AM 44.7500 -65.0833 90° East 200 230 9,000  Level Moncton Center
Mon 10:19:29 AM 44.7500 -64.9833 90° East 210 242 9,000  Level Moncton Center
Mon 10:20:29 AM 44.7500 -64.9167 90° East 200 230 9,000  Level Moncton Center
Mon 10:21:29 AM 44.7667 -64.8167 77° East 210 242 9,000  Level Moncton Center
Mon 10:22:29 AM 44.7667 -64.7500 90° East 210 242 9,000  Level Moncton Center
Mon 10:23:29 AM 44.7667 -64.6833 90° East 200 230 9,000  Level Moncton Center
Mon 10:24:29 AM 44.7667 -64.5833 90° East 200 230 9,000  Level Moncton Center
Mon 10:25:29 AM 44.7833 -64.5167 71° East 210 242 9,000 -50 Level Moncton Center
Mon 10:26:29 AM 44.7833 -64.4167 90° East 200 230 8,900  Descending Moncton Center
Mon 10:27:29 AM 44.7833 -64.3500 90° East 200 230 9,000 50 Climbing Moncton Center
Mon 10:28:28 AM 44.8000 -64.2833 71° East 200 230 9,000 -202 Level Moncton Center
Mon 10:29:28 AM 44.8000 -64.1833 90° East 210 242 8,600 -446 Descending Moncton Center
Mon 10:30:29 AM 44.8000 -64.1167 90° East 220 253 8,100 -850 Descending Moncton Center
Mon 10:31:28 AM 44.8000 -64.0167 90° East 230 265 6,900 -1,050 Descending Moncton Center
Mon 10:32:29 AM 44.8167 -63.9333 74° East 230 265 6,000 -1,000 Descending Moncton Center
Mon 10:33:28 AM 44.8167 -63.8333 90° East 230 265 4,900 -1,050 Descending Moncton Center
Mon 10:34:29 AM 44.8167 -63.7667 90° East 220 253 3,900 -893 Descending Moncton Center
Mon 10:35:29 AM 44.8167 -63.6667 90° East 210 242 3,100 -800 Descending Moncton Center
Mon 10:36:29 AM 44.8167 -63.6000 90° East 200 230 2,300 -400 Descending Moncton Center
Mon 10:37:29 AM 44.8000 -63.5333 109° East 170 196 2,300 -300 Level Moncton Center
Mon 10:38:29 AM 44.8000 -63.4833 90° East 140 161 1,700 -450 Descending Moncton Center
Mon 10:39:29 AM 44.8333 -63.4500 35° Northeast 120 138 1,400 -450 Descending Moncton Center
Mon 10:40:29 AM 44.8667 -63.4833 325° Northwest 110 127 800 -500 Descending Moncton Center
Mon 10:41:29 AM 44.8667 -63.5000 270° West 110 127 400 -169 Descending Moncton Center
Mon 10:42:51 AM 44.8667 -63.5000 180° South 10 12 400  Level Moncton Center
Mon 10:44:00 AM 44.8750 -63.5249 115° Southeast  Level FlightAware
Mon 10:44:59 AM 44.8667 -63.5000 115° Southeast 20 23 400  Level Moncton Center
Mon 10:45:59 AM 44.8667 -63.5000 180° South 20 23 400  Level Moncton Center
Mon 10:47:00 AM 44.8779 -63.5336 115° Southeast  Level FlightAware
Mon 10:54:00 AM 44.8667 -63.5000 North  Level FlightAware
Mon 10:55:00 AM 44.8563 -63.5706 North  Level Estimated
Mon 10:56:00 AM 44.8667 -63.5000 North  Level FlightAware
Mon 10:57:00 AM 44.8563 -63.5706 North  Level Estimated
Mon 10:58:00 AM 44.8667 -63.5000 North  Level FlightAware
Mon 10:59:00 AM 44.8563 -63.5706 North  Level Estimated

Login

Don't have an account? Register now (free) for customized features, flight alerts, and more!